sensor_id;sensor_type;location;lat;lon;timestamp;P1;durP1;ratioP1;P2;durP2;ratioP2
3677;SDS011;1855;50.934;6.958;2023-01-13T00:00:32;0.50;;;0.30;;
3677;SDS011;1855;50.934;6.958;2023-01-13T00:02:58;0.50;;;0.30;;
3677;SDS011;1855;50.934;6.958;2023-01-13T00:05:25;0.82;;;0.30;;
3677;SDS011;1855;50.934;6.958;2023-01-13T00:07:52;0.60;;;0.30;;
3677;SDS011;1855;50.934;6.958;2023-01-13T00:10:20;1.20;;;0.40;;
3677;SDS011;1855;50.934;6.958;2023-01-13T00:12:47;0.70;;;0.30;;
3677;SDS011;1855;50.934;6.958;2023-01-13T00:15:13;1.40;;;0.40;;
3677;SDS011;1855;50.934;6.958;2023-01-13T00:17:40;0.60;;;0.30;;
3677;SDS011;1855;50.934;6.958;2023-01-13T00:20:08;0.80;;;0.40;;
3677;SDS011;1855;50.934;6.958;2023-01-13T00:22:35;0.70;;;0.40;;
3677;SDS011;1855;50.934;6.958;2023-01-13T00:25:02;1.40;;;0.40;;
3677;SDS011;1855;50.934;6.958;2023-01-13T00:27:32;0.80;;;0.50;;
3677;SDS011;1855;50.934;6.958;2023-01-13T00:29:58;0.60;;;0.40;;
3677;SDS011;1855;50.934;6.958;2023-01-13T00:32:26;0.50;;;0.30;;
3677;SDS011;1855;50.934;6.958;2023-01-13T00:34:53;1.40;;;0.40;;
3677;SDS011;1855;50.934;6.958;2023-01-13T00:37:20;0.60;;;0.30;;
3677;SDS011;1855;50.934;6.958;2023-01-13T00:39:47;0.60;;;0.50;;
3677;SDS011;1855;50.934;6.958;2023-01-13T00:42:15;1.40;;;0.40;;
3677;SDS011;1855;50.934;6.958;2023-01-13T00:45:01;0.60;;;0.40;;
3677;SDS011;1855;50.934;6.958;2023-01-13T00:47:28;0.80;;;0.40;;
3677;SDS011;1855;50.934;6.958;2023-01-13T00:49:55;0.80;;;0.40;;
3677;SDS011;1855;50.934;6.958;2023-01-13T00:52:22;0.60;;;0.38;;
3677;SDS011;1855;50.934;6.958;2023-01-13T00:54:49;0.70;;;0.40;;
3677;SDS011;1855;50.934;6.958;2023-01-13T00:57:15;1.10;;;0.50;;
3677;SDS011;1855;50.934;6.958;2023-01-13T00:59:42;0.80;;;0.40;;
3677;SDS011;1855;50.934;6.958;2023-01-13T01:02:10;1.20;;;0.40;;
3677;SDS011;1855;50.934;6.958;2023-01-13T01:04:37;1.60;;;0.60;;
3677;SDS011;1855;50.934;6.958;2023-01-13T01:07:04;0.60;;;0.40;;
3677;SDS011;1855;50.934;6.958;2023-01-13T01:09:31;1.63;;;0.50;;
3677;SDS011;1855;50.934;6.958;2023-01-13T01:11:58;1.20;;;0.70;;
3677;SDS011;1855;50.934;6.958;2023-01-13T01:14:26;0.80;;;0.40;;
3677;SDS011;1855;50.934;6.958;2023-01-13T01:16:53;2.90;;;0.50;;
3677;SDS011;1855;50.934;6.958;2023-01-13T01:19:21;0.65;;;0.30;;
3677;SDS011;1855;50.934;6.958;2023-01-13T01:21:47;1.20;;;0.40;;
3677;SDS011;1855;50.934;6.958;2023-01-13T01:24:14;0.60;;;0.40;;
3677;SDS011;1855;50.934;6.958;2023-01-13T01:26:41;1.20;;;0.50;;
3677;SDS011;1855;50.934;6.958;2023-01-13T01:29:10;1.55;;;0.40;;
3677;SDS011;1855;50.934;6.958;2023-01-13T01:31:39;1.20;;;0.50;;
3677;SDS011;1855;50.934;6.958;2023-01-13T01:34:05;0.97;;;0.40;;
3677;SDS011;1855;50.934;6.958;2023-01-13T01:36:34;1.13;;;0.65;;
3677;SDS011;1855;50.934;6.958;2023-01-13T01:39:01;2.10;;;0.65;;
3677;SDS011;1855;50.934;6.958;2023-01-13T01:41:29;1.70;;;0.60;;
3677;SDS011;1855;50.934;6.958;2023-01-13T01:43:58;1.92;;;0.70;;
3677;SDS011;1855;50.934;6.958;2023-01-13T01:46:29;1.60;;;0.77;;
3677;SDS011;1855;50.934;6.958;2023-01-13T01:48:59;1.65;;;0.60;;
3677;SDS011;1855;50.934;6.958;2023-01-13T01:51:30;2.20;;;0.90;;
3677;SDS011;1855;50.934;6.958;2023-01-13T01:54:00;2.45;;;0.90;;
3677;SDS011;1855;50.934;6.958;2023-01-13T01:56:30;1.42;;;0.60;;
3677;SDS011;1855;50.934;6.958;2023-01-13T01:58:58;3.17;;;1.10;;
3677;SDS011;1855;50.934;6.958;2023-01-13T02:01:25;1.77;;;0.60;;
3677;SDS011;1855;50.934;6.958;2023-01-13T02:03:53;2.30;;;0.90;;
3677;SDS011;1855;50.934;6.958;2023-01-13T02:06:23;1.40;;;0.50;;
3677;SDS011;1855;50.934;6.958;2023-01-13T02:08:51;1.37;;;0.60;;
3677;SDS011;1855;50.934;6.958;2023-01-13T02:11:27;1.98;;;0.73;;
3677;SDS011;1855;50.934;6.958;2023-01-13T02:14:12;2.17;;;0.70;;
3677;SDS011;1855;50.934;6.958;2023-01-13T02:16:39;2.25;;;0.73;;
3677;SDS011;1855;50.934;6.958;2023-01-13T02:19:17;1.33;;;0.65;;
3677;SDS011;1855;50.934;6.958;2023-01-13T02:22:05;1.50;;;0.90;;
3677;SDS011;1855;50.934;6.958;2023-01-13T02:25:04;2.70;;;0.80;;
3677;SDS011;1855;50.934;6.958;2023-01-13T02:27:54;1.60;;;0.70;;
3677;SDS011;1855;50.934;6.958;2023-01-13T02:30:40;2.50;;;0.80;;
3677;SDS011;1855;50.934;6.958;2023-01-13T02:33:32;2.00;;;0.90;;
3677;SDS011;1855;50.934;6.958;2023-01-13T02:36:11;1.83;;;0.65;;
3677;SDS011;1855;50.934;6.958;2023-01-13T02:38:45;1.80;;;0.60;;
3677;SDS011;1855;50.934;6.958;2023-01-13T02:41:17;2.10;;;0.60;;
3677;SDS011;1855;50.934;6.958;2023-01-13T02:44:08;0.90;;;0.45;;
3677;SDS011;1855;50.934;6.958;2023-01-13T02:46:40;2.40;;;1.00;;
3677;SDS011;1855;50.934;6.958;2023-01-13T02:49:16;1.58;;;0.50;;
3677;SDS011;1855;50.934;6.958;2023-01-13T02:51:47;1.92;;;0.60;;
3677;SDS011;1855;50.934;6.958;2023-01-13T02:54:17;2.00;;;0.70;;
3677;SDS011;1855;50.934;6.958;2023-01-13T02:56:47;3.10;;;0.70;;
3677;SDS011;1855;50.934;6.958;2023-01-13T02:59:16;1.70;;;0.60;;
3677;SDS011;1855;50.934;6.958;2023-01-13T03:01:45;1.95;;;0.68;;
3677;SDS011;1855;50.934;6.958;2023-01-13T03:04:14;1.27;;;0.60;;
3677;SDS011;1855;50.934;6.958;2023-01-13T03:07:19;3.08;;;0.70;;
3677;SDS011;1855;50.934;6.958;2023-01-13T03:10:21;2.97;;;0.80;;
3677;SDS011;1855;50.934;6.958;2023-01-13T03:12:57;3.10;;;0.88;;
3677;SDS011;1855;50.934;6.958;2023-01-13T03:15:30;1.90;;;0.80;;
3677;SDS011;1855;50.934;6.958;2023-01-13T03:18:11;1.88;;;0.70;;
3677;SDS011;1855;50.934;6.958;2023-01-13T03:20:47;2.60;;;0.90;;
3677;SDS011;1855;50.934;6.958;2023-01-13T03:23:21;3.28;;;0.90;;
3677;SDS011;1855;50.934;6.958;2023-01-13T03:25:55;3.00;;;1.10;;
3677;SDS011;1855;50.934;6.958;2023-01-13T03:28:31;4.13;;;1.10;;
3677;SDS011;1855;50.934;6.958;2023-01-13T03:31:02;3.20;;;1.23;;
3677;SDS011;1855;50.934;6.958;2023-01-13T03:33:36;4.72;;;1.40;;
3677;SDS011;1855;50.934;6.958;2023-01-13T03:36:09;4.88;;;1.23;;
3677;SDS011;1855;50.934;6.958;2023-01-13T03:38:39;3.47;;;1.00;;
3677;SDS011;1855;50.934;6.958;2023-01-13T03:41:08;4.95;;;1.60;;
3677;SDS011;1855;50.934;6.958;2023-01-13T03:43:40;3.05;;;1.20;;
3677;SDS011;1855;50.934;6.958;2023-01-13T03:46:32;2.30;;;1.08;;
3677;SDS011;1855;50.934;6.958;2023-01-13T03:49:05;3.47;;;1.40;;
3677;SDS011;1855;50.934;6.958;2023-01-13T03:51:34;3.70;;;1.40;;
3677;SDS011;1855;50.934;6.958;2023-01-13T03:54:04;5.90;;;2.00;;
3677;SDS011;1855;50.934;6.958;2023-01-13T03:56:35;4.87;;;1.70;;
3677;SDS011;1855;50.934;6.958;2023-01-13T03:59:06;5.13;;;1.67;;
3677;SDS011;1855;50.934;6.958;2023-01-13T04:01:37;6.20;;;2.15;;
3677;SDS011;1855;50.934;6.958;2023-01-13T04:04:13;5.30;;;2.00;;
3677;SDS011;1855;50.934;6.958;2023-01-13T04:06:46;5.57;;;1.70;;
3677;SDS011;1855;50.934;6.958;2023-01-13T04:09:17;5.73;;;1.80;;
3677;SDS011;1855;50.934;6.958;2023-01-13T04:11:55;5.32;;;1.92;;
3677;SDS011;1855;50.934;6.958;2023-01-13T04:14:25;6.53;;;2.30;;
3677;SDS011;1855;50.934;6.958;2023-01-13T04:16:53;6.63;;;2.67;;
3677;SDS011;1855;50.934;6.958;2023-01-13T04:19:22;5.13;;;1.80;;
3677;SDS011;1855;50.934;6.958;2023-01-13T04:21:49;6.00;;;2.53;;
3677;SDS011;1855;50.934;6.958;2023-01-13T04:24:16;5.00;;;2.13;;
3677;SDS011;1855;50.934;6.958;2023-01-13T04:26:43;6.40;;;1.90;;
3677;SDS011;1855;50.934;6.958;2023-01-13T04:29:09;5.40;;;2.40;;
3677;SDS011;1855;50.934;6.958;2023-01-13T04:31:36;6.05;;;2.50;;
3677;SDS011;1855;50.934;6.958;2023-01-13T04:34:03;7.53;;;2.15;;
3677;SDS011;1855;50.934;6.958;2023-01-13T04:36:31;8.32;;;2.22;;
3677;SDS011;1855;50.934;6.958;2023-01-13T04:38:59;6.60;;;2.22;;
3677;SDS011;1855;50.934;6.958;2023-01-13T04:41:26;5.53;;;2.20;;
3677;SDS011;1855;50.934;6.958;2023-01-13T04:44:13;7.10;;;2.42;;
3677;SDS011;1855;50.934;6.958;2023-01-13T04:46:39;7.80;;;2.90;;
3677;SDS011;1855;50.934;6.958;2023-01-13T04:49:06;8.60;;;2.90;;
3677;SDS011;1855;50.934;6.958;2023-01-13T04:51:34;8.48;;;2.72;;
3677;SDS011;1855;50.934;6.958;2023-01-13T04:54:17;8.77;;;2.70;;
3677;SDS011;1855;50.934;6.958;2023-01-13T04:56:44;5.10;;;2.10;;
3677;SDS011;1855;50.934;6.958;2023-01-13T04:59:11;6.80;;;2.73;;
3677;SDS011;1855;50.934;6.958;2023-01-13T05:01:38;10.48;;;2.65;;
3677;SDS011;1855;50.934;6.958;2023-01-13T05:04:06;11.20;;;2.80;;
3677;SDS011;1855;50.934;6.958;2023-01-13T05:06:34;8.13;;;2.75;;
3677;SDS011;1855;50.934;6.958;2023-01-13T05:09:01;8.68;;;2.70;;
3677;SDS011;1855;50.934;6.958;2023-01-13T05:11:28;10.27;;;2.58;;
3677;SDS011;1855;50.934;6.958;2023-01-13T05:14:12;7.95;;;2.55;;
3677;SDS011;1855;50.934;6.958;2023-01-13T05:16:56;8.35;;;2.40;;
3677;SDS011;1855;50.934;6.958;2023-01-13T05:19:25;8.93;;;2.40;;
3677;SDS011;1855;50.934;6.958;2023-01-13T05:21:53;7.88;;;2.92;;
3677;SDS011;1855;50.934;6.958;2023-01-13T05:24:38;8.90;;;3.00;;
3677;SDS011;1855;50.934;6.958;2023-01-13T05:27:22;11.38;;;2.60;;
3677;SDS011;1855;50.934;6.958;2023-01-13T05:29:49;8.70;;;2.80;;
3677;SDS011;1855;50.934;6.958;2023-01-13T05:32:16;8.50;;;3.20;;
3677;SDS011;1855;50.934;6.958;2023-01-13T05:34:43;9.57;;;2.63;;
3677;SDS011;1855;50.934;6.958;2023-01-13T05:37:11;10.23;;;2.65;;
3677;SDS011;1855;50.934;6.958;2023-01-13T05:39:38;6.73;;;2.30;;
3677;SDS011;1855;50.934;6.958;2023-01-13T05:42:23;8.43;;;2.22;;
3677;SDS011;1855;50.934;6.958;2023-01-13T05:45:07;7.78;;;2.30;;
3677;SDS011;1855;50.934;6.958;2023-01-13T05:47:35;8.68;;;2.40;;
3677;SDS011;1855;50.934;6.958;2023-01-13T05:50:02;5.17;;;1.60;;
3677;SDS011;1855;50.934;6.958;2023-01-13T05:52:31;7.90;;;2.10;;
3677;SDS011;1855;50.934;6.958;2023-01-13T05:54:58;5.50;;;2.00;;
3677;SDS011;1855;50.934;6.958;2023-01-13T05:57:25;5.85;;;2.40;;
3677;SDS011;1855;50.934;6.958;2023-01-13T05:59:51;3.45;;;1.58;;
3677;SDS011;1855;50.934;6.958;2023-01-13T06:02:18;4.78;;;2.10;;
3677;SDS011;1855;50.934;6.958;2023-01-13T06:04:45;5.20;;;1.50;;
3677;SDS011;1855;50.934;6.958;2023-01-13T06:07:11;5.90;;;2.05;;
3677;SDS011;1855;50.934;6.958;2023-01-13T06:09:40;5.65;;;1.80;;
3677;SDS011;1855;50.934;6.958;2023-01-13T06:12:08;6.15;;;1.50;;
3677;SDS011;1855;50.934;6.958;2023-01-13T06:14:36;4.93;;;1.90;;
3677;SDS011;1855;50.934;6.958;2023-01-13T06:17:05;5.57;;;1.83;;
3677;SDS011;1855;50.934;6.958;2023-01-13T06:19:32;4.72;;;1.60;;
3677;SDS011;1855;50.934;6.958;2023-01-13T06:21:59;3.17;;;1.40;;
3677;SDS011;1855;50.934;6.958;2023-01-13T06:24:32;2.22;;;1.20;;
3677;SDS011;1855;50.934;6.958;2023-01-13T06:27:01;4.53;;;1.40;;
3677;SDS011;1855;50.934;6.958;2023-01-13T06:29:28;5.22;;;1.42;;
3677;SDS011;1855;50.934;6.958;2023-01-13T06:31:55;4.80;;;1.50;;
3677;SDS011;1855;50.934;6.958;2023-01-13T06:34:23;4.45;;;1.40;;
3677;SDS011;1855;50.934;6.958;2023-01-13T06:36:50;5.60;;;1.83;;
3677;SDS011;1855;50.934;6.958;2023-01-13T06:39:20;4.97;;;1.60;;
3677;SDS011;1855;50.934;6.958;2023-01-13T06:41:49;3.55;;;1.40;;
3677;SDS011;1855;50.934;6.958;2023-01-13T06:44:38;6.20;;;1.40;;
3677;SDS011;1855;50.934;6.958;2023-01-13T06:47:05;4.20;;;1.30;;
3677;SDS011;1855;50.934;6.958;2023-01-13T06:49:32;4.00;;;1.70;;
3677;SDS011;1855;50.934;6.958;2023-01-13T06:51:59;4.63;;;1.40;;
3677;SDS011;1855;50.934;6.958;2023-01-13T06:54:26;4.10;;;1.50;;
3677;SDS011;1855;50.934;6.958;2023-01-13T06:56:53;4.95;;;1.40;;
3677;SDS011;1855;50.934;6.958;2023-01-13T06:59:20;5.22;;;1.30;;
3677;SDS011;1855;50.934;6.958;2023-01-13T07:01:48;6.25;;;1.77;;
3677;SDS011;1855;50.934;6.958;2023-01-13T07:04:15;7.00;;;1.67;;
3677;SDS011;1855;50.934;6.958;2023-01-13T07:06:42;4.43;;;1.25;;
3677;SDS011;1855;50.934;6.958;2023-01-13T07:09:09;2.83;;;1.10;;
3677;SDS011;1855;50.934;6.958;2023-01-13T07:11:36;4.78;;;1.58;;
3677;SDS011;1855;50.934;6.958;2023-01-13T07:14:03;3.67;;;1.60;;
3677;SDS011;1855;50.934;6.958;2023-01-13T07:16:48;4.10;;;1.10;;
3677;SDS011;1855;50.934;6.958;2023-01-13T07:19:17;5.15;;;1.40;;
3677;SDS011;1855;50.934;6.958;2023-01-13T07:21:47;3.95;;;1.40;;
3677;SDS011;1855;50.934;6.958;2023-01-13T07:24:14;3.05;;;0.93;;
3677;SDS011;1855;50.934;6.958;2023-01-13T07:26:41;3.88;;;1.50;;
3677;SDS011;1855;50.934;6.958;2023-01-13T07:29:08;4.60;;;1.38;;
3677;SDS011;1855;50.934;6.958;2023-01-13T07:31:34;3.38;;;1.30;;
3677;SDS011;1855;50.934;6.958;2023-01-13T07:34:04;2.33;;;0.93;;
3677;SDS011;1855;50.934;6.958;2023-01-13T07:36:31;3.03;;;1.00;;
3677;SDS011;1855;50.934;6.958;2023-01-13T07:38:57;3.53;;;1.48;;
3677;SDS011;1855;50.934;6.958;2023-01-13T07:41:24;3.58;;;0.90;;
3677;SDS011;1855;50.934;6.958;2023-01-13T07:44:08;2.67;;;0.98;;
3677;SDS011;1855;50.934;6.958;2023-01-13T07:46:35;2.13;;;1.00;;
3677;SDS011;1855;50.934;6.958;2023-01-13T07:49:04;2.97;;;1.25;;
3677;SDS011;1855;50.934;6.958;2023-01-13T07:51:33;2.47;;;1.10;;
3677;SDS011;1855;50.934;6.958;2023-01-13T07:54:01;2.70;;;1.50;;
3677;SDS011;1855;50.934;6.958;2023-01-13T07:56:28;3.38;;;1.25;;
3677;SDS011;1855;50.934;6.958;2023-01-13T07:58:55;2.58;;;1.10;;
3677;SDS011;1855;50.934;6.958;2023-01-13T08:01:23;3.03;;;0.90;;
3677;SDS011;1855;50.934;6.958;2023-01-13T08:03:51;4.68;;;1.10;;
3677;SDS011;1855;50.934;6.958;2023-01-13T08:06:19;3.47;;;1.50;;
3677;SDS011;1855;50.934;6.958;2023-01-13T08:08:47;3.22;;;1.10;;
3677;SDS011;1855;50.934;6.958;2023-01-13T08:11:13;2.50;;;1.33;;
3677;SDS011;1855;50.934;6.958;2023-01-13T08:13:40;2.67;;;1.00;;
3677;SDS011;1855;50.934;6.958;2023-01-13T08:16:08;2.70;;;1.17;;
3677;SDS011;1855;50.934;6.958;2023-01-13T08:18:37;4.85;;;1.45;;
3677;SDS011;1855;50.934;6.958;2023-01-13T08:21:04;4.22;;;1.60;;
3677;SDS011;1855;50.934;6.958;2023-01-13T08:23:34;4.40;;;1.30;;
3677;SDS011;1855;50.934;6.958;2023-01-13T08:26:01;3.95;;;1.27;;
3677;SDS011;1855;50.934;6.958;2023-01-13T08:28:29;3.80;;;1.60;;
3677;SDS011;1855;50.934;6.958;2023-01-13T08:30:57;3.80;;;1.20;;
3677;SDS011;1855;50.934;6.958;2023-01-13T08:33:25;3.92;;;1.40;;
3677;SDS011;1855;50.934;6.958;2023-01-13T08:35:52;5.28;;;1.60;;
3677;SDS011;1855;50.934;6.958;2023-01-13T08:38:20;3.90;;;1.98;;
3677;SDS011;1855;50.934;6.958;2023-01-13T08:40:49;7.65;;;1.70;;
3677;SDS011;1855;50.934;6.958;2023-01-13T08:43:15;9.07;;;1.80;;
3677;SDS011;1855;50.934;6.958;2023-01-13T08:45:42;3.97;;;1.52;;
3677;SDS011;1855;50.934;6.958;2023-01-13T08:48:09;6.68;;;1.63;;
3677;SDS011;1855;50.934;6.958;2023-01-13T08:50:36;4.83;;;1.80;;
3677;SDS011;1855;50.934;6.958;2023-01-13T08:53:03;6.40;;;2.35;;
3677;SDS011;1855;50.934;6.958;2023-01-13T08:55:29;7.75;;;2.13;;
3677;SDS011;1855;50.934;6.958;2023-01-13T08:57:58;7.50;;;2.50;;
3677;SDS011;1855;50.934;6.958;2023-01-13T09:00:24;4.70;;;2.10;;
3677;SDS011;1855;50.934;6.958;2023-01-13T09:02:51;8.95;;;2.60;;
3677;SDS011;1855;50.934;6.958;2023-01-13T09:05:18;7.68;;;2.65;;
3677;SDS011;1855;50.934;6.958;2023-01-13T09:07:45;11.30;;;2.30;;
3677;SDS011;1855;50.934;6.958;2023-01-13T09:10:11;7.75;;;2.35;;
3677;SDS011;1855;50.934;6.958;2023-01-13T09:12:38;6.00;;;2.20;;
3677;SDS011;1855;50.934;6.958;2023-01-13T09:15:24;8.40;;;2.50;;
3677;SDS011;1855;50.934;6.958;2023-01-13T09:17:51;8.85;;;2.80;;
3677;SDS011;1855;50.934;6.958;2023-01-13T09:20:17;6.90;;;2.33;;
3677;SDS011;1855;50.934;6.958;2023-01-13T09:22:44;7.22;;;2.33;;
3677;SDS011;1855;50.934;6.958;2023-01-13T09:25:11;8.43;;;2.50;;
3677;SDS011;1855;50.934;6.958;2023-01-13T09:27:38;7.90;;;2.25;;
3677;SDS011;1855;50.934;6.958;2023-01-13T09:30:05;5.43;;;2.50;;
3677;SDS011;1855;50.934;6.958;2023-01-13T09:32:34;7.57;;;2.20;;
3677;SDS011;1855;50.934;6.958;2023-01-13T09:35:03;7.82;;;2.40;;
3677;SDS011;1855;50.934;6.958;2023-01-13T09:37:31;7.33;;;2.67;;
3677;SDS011;1855;50.934;6.958;2023-01-13T09:39:59;9.18;;;3.00;;
3677;SDS011;1855;50.934;6.958;2023-01-13T09:42:38;7.20;;;2.90;;
3677;SDS011;1855;50.934;6.958;2023-01-13T09:45:27;8.70;;;3.53;;
3677;SDS011;1855;50.934;6.958;2023-01-13T09:48:01;7.30;;;2.90;;
3677;SDS011;1855;50.934;6.958;2023-01-13T09:50:38;9.18;;;2.63;;
3677;SDS011;1855;50.934;6.958;2023-01-13T09:53:13;6.93;;;2.10;;
3677;SDS011;1855;50.934;6.958;2023-01-13T09:55:44;9.80;;;2.60;;
3677;SDS011;1855;50.934;6.958;2023-01-13T09:58:12;6.50;;;1.90;;
3677;SDS011;1855;50.934;6.958;2023-01-13T10:00:43;8.75;;;2.30;;
3677;SDS011;1855;50.934;6.958;2023-01-13T10:03:20;8.13;;;2.50;;
3677;SDS011;1855;50.934;6.958;2023-01-13T10:05:52;9.57;;;2.60;;
3677;SDS011;1855;50.934;6.958;2023-01-13T10:08:25;7.38;;;2.80;;
3677;SDS011;1855;50.934;6.958;2023-01-13T10:10:54;7.07;;;2.47;;
3677;SDS011;1855;50.934;6.958;2023-01-13T10:13:23;8.90;;;2.85;;
3677;SDS011;1855;50.934;6.958;2023-01-13T10:18:49;8.50;;;2.60;;
3677;SDS011;1855;50.934;6.958;2023-01-13T10:21:40;7.70;;;2.60;;
3677;SDS011;1855;50.934;6.958;2023-01-13T10:24:19;11.00;;;2.65;;
3677;SDS011;1855;50.934;6.958;2023-01-13T10:26:51;6.07;;;2.40;;
3677;SDS011;1855;50.934;6.958;2023-01-13T10:29:27;10.45;;;2.53;;
3677;SDS011;1855;50.934;6.958;2023-01-13T10:31:56;6.70;;;2.70;;
3677;SDS011;1855;50.934;6.958;2023-01-13T10:34:26;10.80;;;2.50;;
3677;SDS011;1855;50.934;6.958;2023-01-13T10:36:54;5.80;;;2.53;;
3677;SDS011;1855;50.934;6.958;2023-01-13T10:39:37;9.38;;;2.60;;
3677;SDS011;1855;50.934;6.958;2023-01-13T10:42:06;10.00;;;2.72;;
3677;SDS011;1855;50.934;6.958;2023-01-13T10:44:45;9.60;;;2.90;;
3677;SDS011;1855;50.934;6.958;2023-01-13T10:47:20;7.47;;;3.17;;
3677;SDS011;1855;50.934;6.958;2023-01-13T10:50:01;8.52;;;2.90;;
3677;SDS011;1855;50.934;6.958;2023-01-13T10:52:54;6.63;;;2.33;;
3677;SDS011;1855;50.934;6.958;2023-01-13T10:55:23;7.43;;;2.50;;
3677;SDS011;1855;50.934;6.958;2023-01-13T10:57:52;8.23;;;2.60;;
3677;SDS011;1855;50.934;6.958;2023-01-13T11:00:24;7.60;;;2.83;;
3677;SDS011;1855;50.934;6.958;2023-01-13T11:03:04;5.53;;;2.40;;
3677;SDS011;1855;50.934;6.958;2023-01-13T11:05:48;11.43;;;2.80;;
3677;SDS011;1855;50.934;6.958;2023-01-13T11:08:17;8.23;;;3.00;;
3677;SDS011;1855;50.934;6.958;2023-01-13T11:10:47;8.83;;;3.00;;
3677;SDS011;1855;50.934;6.958;2023-01-13T11:13:17;9.23;;;2.80;;
3677;SDS011;1855;50.934;6.958;2023-01-13T11:15:49;7.85;;;2.95;;
3677;SDS011;1855;50.934;6.958;2023-01-13T11:18:22;9.00;;;2.63;;
3677;SDS011;1855;50.934;6.958;2023-01-13T11:20:54;10.30;;;2.70;;
3677;SDS011;1855;50.934;6.958;2023-01-13T11:23:25;9.48;;;3.65;;
3677;SDS011;1855;50.934;6.958;2023-01-13T11:25:59;7.88;;;2.65;;
3677;SDS011;1855;50.934;6.958;2023-01-13T11:28:37;8.38;;;3.17;;
3677;SDS011;1855;50.934;6.958;2023-01-13T11:31:13;8.52;;;2.78;;
3677;SDS011;1855;50.934;6.958;2023-01-13T11:33:47;8.25;;;3.08;;
3677;SDS011;1855;50.934;6.958;2023-01-13T11:36:21;9.27;;;3.20;;
3677;SDS011;1855;50.934;6.958;2023-01-13T11:38:51;9.60;;;3.70;;
3677;SDS011;1855;50.934;6.958;2023-01-13T11:41:26;10.50;;;3.30;;
3677;SDS011;1855;50.934;6.958;2023-01-13T11:43:59;9.07;;;3.30;;
3677;SDS011;1855;50.934;6.958;2023-01-13T11:46:33;7.90;;;2.90;;
3677;SDS011;1855;50.934;6.958;2023-01-13T11:49:00;8.05;;;2.75;;
3677;SDS011;1855;50.934;6.958;2023-01-13T11:51:33;8.02;;;2.60;;
3677;SDS011;1855;50.934;6.958;2023-01-13T11:54:14;7.70;;;2.80;;
3677;SDS011;1855;50.934;6.958;2023-01-13T11:56:59;6.75;;;2.90;;
3677;SDS011;1855;50.934;6.958;2023-01-13T11:59:58;9.25;;;2.95;;
3677;SDS011;1855;50.934;6.958;2023-01-13T12:02:48;7.53;;;2.95;;
3677;SDS011;1855;50.934;6.958;2023-01-13T12:05:21;9.15;;;2.60;;
3677;SDS011;1855;50.934;6.958;2023-01-13T12:07:57;8.40;;;2.58;;
3677;SDS011;1855;50.934;6.958;2023-01-13T12:10:43;8.45;;;3.20;;
3677;SDS011;1855;50.934;6.958;2023-01-13T12:13:24;6.07;;;2.20;;
3677;SDS011;1855;50.934;6.958;2023-01-13T12:16:00;8.98;;;2.70;;
3677;SDS011;1855;50.934;6.958;2023-01-13T12:18:54;7.15;;;2.47;;
3677;SDS011;1855;50.934;6.958;2023-01-13T12:21:31;8.38;;;2.83;;
3677;SDS011;1855;50.934;6.958;2023-01-13T12:24:04;6.90;;;2.60;;
3677;SDS011;1855;50.934;6.958;2023-01-13T12:26:39;5.53;;;2.30;;
3677;SDS011;1855;50.934;6.958;2023-01-13T12:29:11;5.05;;;2.20;;
3677;SDS011;1855;50.934;6.958;2023-01-13T12:31:42;6.32;;;2.05;;
3677;SDS011;1855;50.934;6.958;2023-01-13T12:34:18;6.22;;;2.17;;
3677;SDS011;1855;50.934;6.958;2023-01-13T12:36:55;6.97;;;2.50;;
3677;SDS011;1855;50.934;6.958;2023-01-13T12:39:34;6.93;;;2.53;;
3677;SDS011;1855;50.934;6.958;2023-01-13T12:42:13;7.88;;;2.55;;
3677;SDS011;1855;50.934;6.958;2023-01-13T12:45:21;4.82;;;2.17;;
3677;SDS011;1855;50.934;6.958;2023-01-13T12:47:50;5.82;;;1.98;;
3677;SDS011;1855;50.934;6.958;2023-01-13T12:50:37;6.10;;;2.63;;
3677;SDS011;1855;50.934;6.958;2023-01-13T12:56:20;8.77;;;2.60;;
3677;SDS011;1855;50.934;6.958;2023-01-13T13:02:26;8.20;;;2.40;;
3677;SDS011;1855;50.934;6.958;2023-01-13T13:04:57;8.57;;;2.22;;
3677;SDS011;1855;50.934;6.958;2023-01-13T13:07:34;7.53;;;2.97;;
3677;SDS011;1855;50.934;6.958;2023-01-13T13:10:12;8.48;;;2.60;;
3677;SDS011;1855;50.934;6.958;2023-01-13T13:12:57;11.10;;;3.42;;
3677;SDS011;1855;50.934;6.958;2023-01-13T13:15:44;10.98;;;3.00;;
3677;SDS011;1855;50.934;6.958;2023-01-13T13:20:57;8.65;;;2.95;;
3677;SDS011;1855;50.934;6.958;2023-01-13T13:23:37;8.45;;;2.95;;
3677;SDS011;1855;50.934;6.958;2023-01-13T13:26:28;7.45;;;2.40;;
3677;SDS011;1855;50.934;6.958;2023-01-13T13:29:07;7.15;;;2.40;;
3677;SDS011;1855;50.934;6.958;2023-01-13T13:38:02;11.02;;;4.00;;
3677;SDS011;1855;50.934;6.958;2023-01-13T13:41:03;8.32;;;2.67;;
3677;SDS011;1855;50.934;6.958;2023-01-13T13:43:48;8.73;;;2.60;;
3677;SDS011;1855;50.934;6.958;2023-01-13T13:46:43;7.60;;;2.40;;
3677;SDS011;1855;50.934;6.958;2023-01-13T13:49:14;8.90;;;2.75;;
3677;SDS011;1855;50.934;6.958;2023-01-13T13:51:43;11.18;;;2.78;;
3677;SDS011;1855;50.934;6.958;2023-01-13T13:54:16;8.40;;;3.05;;
3677;SDS011;1855;50.934;6.958;2023-01-13T13:56:45;6.63;;;2.60;;
3677;SDS011;1855;50.934;6.958;2023-01-13T13:59:15;8.73;;;2.97;;
3677;SDS011;1855;50.934;6.958;2023-01-13T14:01:48;8.48;;;2.70;;
3677;SDS011;1855;50.934;6.958;2023-01-13T14:04:18;9.48;;;2.83;;
3677;SDS011;1855;50.934;6.958;2023-01-13T14:06:51;11.25;;;3.78;;
3677;SDS011;1855;50.934;6.958;2023-01-13T14:09:19;11.43;;;3.60;;
3677;SDS011;1855;50.934;6.958;2023-01-13T14:11:58;12.93;;;4.00;;
3677;SDS011;1855;50.934;6.958;2023-01-13T14:14:26;8.95;;;3.10;;
3677;SDS011;1855;50.934;6.958;2023-01-13T14:16:55;10.68;;;3.22;;
3677;SDS011;1855;50.934;6.958;2023-01-13T14:19:27;9.47;;;3.60;;
3677;SDS011;1855;50.934;6.958;2023-01-13T14:21:56;9.40;;;3.30;;
3677;SDS011;1855;50.934;6.958;2023-01-13T14:24:23;8.23;;;3.33;;
3677;SDS011;1855;50.934;6.958;2023-01-13T14:26:50;8.82;;;3.10;;
3677;SDS011;1855;50.934;6.958;2023-01-13T14:29:18;10.53;;;4.13;;
3677;SDS011;1855;50.934;6.958;2023-01-13T14:31:47;8.18;;;3.00;;
3677;SDS011;1855;50.934;6.958;2023-01-13T14:34:16;8.55;;;2.92;;
3677;SDS011;1855;50.934;6.958;2023-01-13T14:36:45;9.05;;;2.80;;
3677;SDS011;1855;50.934;6.958;2023-01-13T14:39:34;6.25;;;2.40;;
3677;SDS011;1855;50.934;6.958;2023-01-13T14:42:03;6.53;;;2.30;;
3677;SDS011;1855;50.934;6.958;2023-01-13T14:44:30;6.18;;;2.50;;
3677;SDS011;1855;50.934;6.958;2023-01-13T14:47:00;9.60;;;2.65;;
3677;SDS011;1855;50.934;6.958;2023-01-13T14:49:31;7.57;;;2.20;;
3677;SDS011;1855;50.934;6.958;2023-01-13T14:52:02;5.97;;;2.33;;
3677;SDS011;1855;50.934;6.958;2023-01-13T14:54:42;7.10;;;2.50;;
3677;SDS011;1855;50.934;6.958;2023-01-13T14:57:11;7.68;;;2.42;;
3677;SDS011;1855;50.934;6.958;2023-01-13T14:59:46;8.90;;;2.58;;
3677;SDS011;1855;50.934;6.958;2023-01-13T15:08:30;10.07;;;2.90;;
3677;SDS011;1855;50.934;6.958;2023-01-13T15:11:01;7.25;;;2.97;;
3677;SDS011;1855;50.934;6.958;2023-01-13T15:13:31;8.52;;;2.78;;
3677;SDS011;1855;50.934;6.958;2023-01-13T15:16:03;9.98;;;4.20;;
3677;SDS011;1855;50.934;6.958;2023-01-13T15:18:31;9.80;;;3.40;;
3677;SDS011;1855;50.934;6.958;2023-01-13T15:21:05;11.18;;;3.40;;
3677;SDS011;1855;50.934;6.958;2023-01-13T15:23:32;10.87;;;3.67;;
3677;SDS011;1855;50.934;6.958;2023-01-13T15:25:59;8.30;;;3.08;;
3677;SDS011;1855;50.934;6.958;2023-01-13T15:28:26;10.55;;;3.60;;
3677;SDS011;1855;50.934;6.958;2023-01-13T15:30:54;9.35;;;2.90;;
3677;SDS011;1855;50.934;6.958;2023-01-13T15:33:24;8.88;;;3.00;;
3677;SDS011;1855;50.934;6.958;2023-01-13T15:35:51;5.60;;;2.47;;
3677;SDS011;1855;50.934;6.958;2023-01-13T15:38:22;7.32;;;2.80;;
3677;SDS011;1855;50.934;6.958;2023-01-13T15:40:50;10.15;;;2.60;;
3677;SDS011;1855;50.934;6.958;2023-01-13T15:43:18;7.10;;;2.70;;
3677;SDS011;1855;50.934;6.958;2023-01-13T15:46:05;8.68;;;2.97;;
3677;SDS011;1855;50.934;6.958;2023-01-13T15:48:55;9.15;;;3.33;;
3677;SDS011;1855;50.934;6.958;2023-01-13T15:51:22;6.78;;;2.90;;
3677;SDS011;1855;50.934;6.958;2023-01-13T15:53:50;10.18;;;3.30;;
3677;SDS011;1855;50.934;6.958;2023-01-13T15:56:19;11.10;;;3.20;;
3677;SDS011;1855;50.934;6.958;2023-01-13T15:58:47;13.48;;;3.53;;
3677;SDS011;1855;50.934;6.958;2023-01-13T16:01:14;12.57;;;3.80;;
3677;SDS011;1855;50.934;6.958;2023-01-13T16:03:41;10.88;;;3.30;;
3677;SDS011;1855;50.934;6.958;2023-01-13T16:06:10;12.95;;;3.55;;
3677;SDS011;1855;50.934;6.958;2023-01-13T16:08:41;12.45;;;4.38;;